• Join FlightAware (Why Join?)
  • Login
  • US Flag 
05:24AM EDT


 

Airport Tracker/Info


-or-


 

Live Flight TrackerFlight Track Log ✈ N2BA ✈ 17-Jun-2013 ✈ KBHM - KMSY

Flight Track Log - Related Links

Times and Time Zones

All times are in EDT time to prevent confusion due to time zone crossing. See the N2BA flight status page for this flight to view local times or setup timezone preferences in your user account.

Time Position Orientation Groundspeed Altitude Reporting Facility
EDT Latitude Longitude Course Direction KTS MPH feet Rate Location/Type
10:50PM 33.5725 -86.7464 56° Northeast 174 200 2,000  Level Atlanta Center
10:51PM 33.5986 -86.7000 56° Northeast 221 254 4,900 3,360 Climbing Atlanta Center
10:53PM 33.5125 -86.7197 191° South 137 158 11,600 3,060 Climbing Atlanta Center
10:54PM 33.4528 -86.7775 219° Southwest 206 237 14,600 2,760 Climbing Atlanta Center
10:55PM 33.3844 -86.8425 218° Southwest 279 321 17,200 2,580 Climbing Atlanta Center
10:56PM 33.3161 -86.9175 223° Southwest 303 349 19,800 1,920 Climbing Atlanta Center
10:57PM 33.2536 -86.9922 225° Southwest 330 380 21,100 1,740 Climbing Atlanta Center
10:58PM 33.1661 -87.0811 220° Southwest 364 419 23,300 1,920 Climbing Atlanta Center
10:59PM 33.0886 -87.1678 223° Southwest 379 436 25,000 1,500 Climbing Atlanta Center
11:00PM 33.0156 -87.2469 222° Southwest 394 453 26,300 1,200 Climbing Atlanta Center
11:01PM 32.9278 -87.3328 219° Southwest 399 459 27,500 600 Climbing Atlanta Center
11:03PM 32.7600 -87.4992 220° Southwest 444 511 28,100 180 Climbing Memphis Center
11:04PM 32.6625 -87.6183 226° Southwest 456 525 28,100  Level Memphis Center
11:05PM 32.5708 -87.7147 222° Southwest 456 525 28,100  Level Memphis Center
11:06PM 32.4725 -87.8061 218° Southwest 456 525 28,100  Level Memphis Center
11:07PM 32.3761 -87.8975 219° Southwest 456 525 28,100  Level Memphis Center
11:08PM 32.2822 -87.9983 222° Southwest 451 519 28,100  Level Memphis Center
11:09PM 32.1900 -88.0967 222° Southwest 457 526 28,100  Level Memphis Center
11:10PM 32.0978 -88.1919 221° Southwest 457 526 28,100 -60 Level Memphis Center
11:11PM 32.0114 -88.2775 220° Southwest 452 520 28,000  Descending Memphis Center
11:12PM 31.9067 -88.3778 219° Southwest 447 514 28,100 60 Climbing Memphis Center
11:12PM 31.8572 -88.4256 219° Southwest 447 514 28,100  Level Houston Center
11:13PM 31.7636 -88.5219 221° Southwest 449 517 28,100  Level Houston Center
11:14PM 31.6692 -88.6181 221° Southwest 452 520 28,100  Level Houston Center
11:15PM 31.5736 -88.7114 220° Southwest 450 518 28,100  Level Houston Center
11:16PM 31.4592 -88.8250 220° Southwest 451 519 28,100  Level Houston Center
11:17PM 31.3636 -88.9186 220° Southwest 452 520 28,100  Level Houston Center
11:18PM 31.2706 -89.0117 221° Southwest 445 512 28,100  Level Houston Center
11:19PM 31.1783 -89.1075 222° Southwest 453 521 28,100 -60 Level Houston Center
11:20PM 31.0817 -89.2017 220° Southwest 453 521 28,000 -780 Descending Houston Center
11:21PM 30.9869 -89.2939 220° Southwest 444 511 26,600 -1,320 Descending Houston Center
11:22PM 30.8944 -89.3836 220° Southwest 435 501 25,400 -1,260 Descending Houston Center
11:23PM 30.8031 -89.4708 219° Southwest 426 490 24,100 -1,260 Descending Houston Center
11:25PM 30.6894 -89.5819 220° Southwest 412 474 22,800 -1,200 Descending Houston Center
11:25PM 30.6431 -89.6278 220° Southwest 403 464 22,200 -1,020 Descending Houston Center
11:25PM 30.6131 -89.6567 220° Southwest 401 461 21,900 -1,320 Descending Houston Center
11:26PM 30.5603 -89.7089 220° Southwest 388 447 20,900 -2,100 Descending Houston Center
11:27PM 30.5322 -89.7369 221° Southwest 385 443 19,800 -3,120 Descending Houston Center
11:27PM 30.4836 -89.7872 222° Southwest 367 422 17,800 -3,060 Descending Houston Center
11:28PM 30.4558 -89.8114 217° Southwest 366 421 16,700 -3,300 Descending Houston Center
11:28PM 30.4067 -89.8606 221° Southwest 356 410 14,500 -3,360 Descending Houston Center
11:29PM 30.3842 -89.8836 221° Southwest 353 406 13,300 -3,900 Descending Houston Center
11:29PM 30.3358 -89.9311 220° Southwest 332 382 10,600 -3,180 Descending Houston Center
11:30PM 30.3175 -89.9542 227° Southwest 337 388 10,100 -1,980 Descending Houston Center
11:30PM 30.2797 -90.0033 228° Southwest 287 330 8,600 -2,520 Descending Houston Center
11:31PM 30.2644 -90.0225 227° Southwest 297 342 7,600 -3,000 Descending Houston Center
11:31PM 30.2275 -90.0706 228° Southwest 276 318 5,600 -2,760 Descending Houston Center
11:32PM 30.2133 -90.0897 229° Southwest 285 328 4,800 -1,920 Descending Houston Center
11:32PM 30.1753 -90.1378 228° Southwest 255 293 3,700 -1,800 Descending Houston Center
11:33PM 30.1561 -90.1583 223° Southwest 261 300 3,000 -1,380 Descending Houston Center
11:33PM 30.1264 -90.1831 216° Southwest 215 247 2,300 -900 Descending Houston Center
11:34PM 30.1083 -90.1981 216° Southwest 233 268 2,100 -540 Descending Houston Center
11:34PM 30.0794 -90.2136 205° Southwest 179 206 1,800 -600 Descending Houston Center
11:35PM 30.0633 -90.2233 208° Southwest 202 232 1,500 -720 Descending Houston Center
11:35PM 30.0422 -90.2319 199° South 130 150 1,100 -420 Descending Houston Center
11:36PM 30.0289 -90.2397 207° Southwest 185 213 1,100 -840 Level Houston Center
11:36PM 30.0114 -90.2428 189° South 108 124 300 -1,440 Descending Houston Center
11:38PM 29.9833 -90.2500 221° Southwest  Level FlightAware Approximate
11:45PM 29.9934 -90.2580 221° Southwest  Level Estimated
11:46PM 29.9934 -90.2580 221° Southwest  Level Estimated